createdAt,value
2023-06-19T00:00:31.869Z,81.80
2023-06-19T00:02:58.890Z,81.60
2023-06-19T00:05:26.254Z,81.80
2023-06-19T00:07:53.213Z,81.70
2023-06-19T00:10:20.160Z,81.90
2023-06-19T00:12:47.103Z,82.20
2023-06-19T00:15:13.990Z,82.40
2023-06-19T00:17:40.752Z,81.30
2023-06-19T00:20:07.831Z,81.50
2023-06-19T00:22:34.892Z,81.70
2023-06-19T00:25:01.650Z,81.90
2023-06-19T00:27:28.336Z,82.10
2023-06-19T00:29:55.079Z,82.60
2023-06-19T00:32:21.802Z,82.90
2023-06-19T00:34:49.510Z,83.40
2023-06-19T00:37:16.233Z,83.20
2023-06-19T00:39:44.842Z,83.50
2023-06-19T00:42:11.890Z,83.50
2023-06-19T00:44:38.608Z,83.80
2023-06-19T00:47:05.723Z,83.50
2023-06-19T00:49:32.672Z,84.30
2023-06-19T00:51:59.541Z,83.70
2023-06-19T00:54:26.429Z,83.50
2023-06-19T00:56:54.917Z,84.20
2023-06-19T00:59:21.975Z,84.40
2023-06-19T01:01:48.915Z,84.30
2023-06-19T01:04:15.839Z,84.20
2023-06-19T01:06:59.070Z,84.00
2023-06-19T01:09:32.139Z,83.90
2023-06-19T01:12:01.969Z,84.10
2023-06-19T01:14:39.034Z,84.20
2023-06-19T01:17:06.583Z,84.50
2023-06-19T01:19:33.541Z,84.30
2023-06-19T01:22:02.464Z,84.90
2023-06-19T01:24:29.333Z,84.40
2023-06-19T01:26:56.750Z,84.50
2023-06-19T01:29:23.553Z,84.70
2023-06-19T01:31:50.277Z,84.90
2023-06-19T01:34:18.444Z,85.00
2023-06-19T01:36:45.232Z,84.80
2023-06-19T01:39:12.720Z,84.50
2023-06-19T01:41:39.705Z,84.60
2023-06-19T01:44:06.788Z,84.70
2023-06-19T01:46:33.740Z,85.20
2023-06-19T01:49:00.530Z,85.40
2023-06-19T01:51:27.212Z,85.30
2023-06-19T01:53:54.256Z,85.10
2023-06-19T01:56:21.018Z,85.30
2023-06-19T01:58:47.672Z,85.40
2023-06-19T02:01:14.762Z,85.50
2023-06-19T02:03:41.528Z,85.50
2023-06-19T02:06:08.245Z,85.70
2023-06-19T02:08:34.928Z,85.80
2023-06-19T02:11:01.895Z,85.80
2023-06-19T02:13:28.557Z,85.90
2023-06-19T02:15:55.460Z,85.70
2023-06-19T02:18:22.195Z,85.70
2023-06-19T02:20:49.057Z,85.00
2023-06-19T02:23:16.114Z,84.50
2023-06-19T02:25:42.825Z,84.30
2023-06-19T02:28:09.544Z,83.60
2023-06-19T02:30:36.284Z,84.00
2023-06-19T02:33:03.049Z,83.30
2023-06-19T02:35:29.805Z,83.90
2023-06-19T02:37:56.463Z,84.40
2023-06-19T02:40:23.287Z,83.70
2023-06-19T02:42:50.219Z,84.00
2023-06-19T02:45:17.650Z,83.70
2023-06-19T02:47:44.622Z,84.50
2023-06-19T02:50:11.354Z,85.20
2023-06-19T02:52:38.152Z,84.90
2023-06-19T02:55:05.143Z,84.50
2023-06-19T02:57:31.888Z,84.70
2023-06-19T02:59:58.571Z,85.10
2023-06-19T03:02:25.458Z,85.20
2023-06-19T03:04:53.001Z,85.00
2023-06-19T03:07:19.750Z,85.40
2023-06-19T03:09:46.466Z,85.30
2023-06-19T03:12:14.139Z,84.80
2023-06-19T03:14:41.053Z,85.20
2023-06-19T03:17:07.804Z,85.20
2023-06-19T03:19:35.395Z,85.10
2023-06-19T03:22:02.174Z,85.30
2023-06-19T03:24:28.911Z,84.80
2023-06-19T03:26:55.740Z,85.00
2023-06-19T03:29:22.444Z,85.30
2023-06-19T03:31:49.220Z,85.30
2023-06-19T03:34:15.895Z,84.80
2023-06-19T03:36:42.617Z,85.10
2023-06-19T03:39:09.397Z,84.80
2023-06-19T03:41:36.175Z,85.40
2023-06-19T03:44:02.837Z,85.40
2023-06-19T03:46:29.647Z,85.20
2023-06-19T03:48:56.348Z,84.90
2023-06-19T03:51:23.179Z,85.10
2023-06-19T03:53:50.553Z,84.90
2023-06-19T03:56:17.220Z,85.10
2023-06-19T03:58:44.134Z,85.10
2023-06-19T04:01:10.843Z,85.10
2023-06-19T04:03:38.743Z,85.50
2023-06-19T04:06:07.274Z,85.50
2023-06-19T04:08:34.523Z,86.00
2023-06-19T04:11:01.186Z,85.70
2023-06-19T04:13:27.852Z,86.60
2023-06-19T04:15:54.580Z,86.60
2023-06-19T04:18:21.325Z,86.50
2023-06-19T04:20:48.059Z,87.10
2023-06-19T04:23:14.852Z,87.20
2023-06-19T04:25:41.541Z,87.30
2023-06-19T04:28:08.219Z,87.20
2023-06-19T04:30:34.960Z,87.40
2023-06-19T04:33:01.906Z,87.50
2023-06-19T04:35:28.696Z,87.50
2023-06-19T04:37:55.453Z,87.40
2023-06-19T04:40:22.350Z,86.90
2023-06-19T04:42:49.139Z,87.70
2023-06-19T04:45:15.811Z,87.20
2023-06-19T04:47:52.627Z,86.30
2023-06-19T04:50:20.865Z,85.40
2023-06-19T04:52:48.584Z,84.70
2023-06-19T04:55:15.296Z,84.20
2023-06-19T04:57:42.037Z,83.90
2023-06-19T05:00:11.125Z,83.10
2023-06-19T05:02:38.228Z,83.20
2023-06-19T05:05:05.438Z,82.90
2023-06-19T05:07:32.564Z,83.20
2023-06-19T05:09:59.741Z,82.60
2023-06-19T05:12:26.527Z,82.80
2023-06-19T05:14:53.321Z,82.50
2023-06-19T05:17:20.203Z,82.40
2023-06-19T05:19:47.347Z,81.70
2023-06-19T05:22:14.562Z,82.10
2023-06-19T05:24:41.593Z,81.40
2023-06-19T05:27:08.619Z,81.20
2023-06-19T05:29:35.411Z,81.10
2023-06-19T05:32:02.203Z,80.90
2023-06-19T05:34:28.937Z,80.90
2023-06-19T05:36:55.627Z,81.00
2023-06-19T05:39:22.378Z,81.30
2023-06-19T05:41:49.173Z,80.80
2023-06-19T05:44:17.770Z,81.00
2023-06-19T05:46:44.765Z,81.40
2023-06-19T05:49:11.663Z,81.50
2023-06-19T05:51:38.393Z,80.70
2023-06-19T05:54:05.283Z,81.60
2023-06-19T05:56:34.037Z,80.50
2023-06-19T05:59:02.307Z,81.20
2023-06-19T06:01:29.682Z,80.10
2023-06-19T06:03:56.897Z,78.90
2023-06-19T06:06:23.980Z,79.50
2023-06-19T06:08:52.211Z,78.20
2023-06-19T06:11:19.063Z,79.00
2023-06-19T06:13:45.707Z,78.60
2023-06-19T06:16:12.571Z,79.40
2023-06-19T06:18:39.290Z,78.70
2023-06-19T06:21:06.066Z,79.10
2023-06-19T06:23:32.837Z,78.70
2023-06-19T06:26:03.948Z,79.00
2023-06-19T06:28:31.635Z,78.60
2023-06-19T06:30:58.630Z,79.20
2023-06-19T06:33:25.343Z,78.00
2023-06-19T06:35:52.864Z,78.30
2023-06-19T06:38:23.367Z,78.60
2023-06-19T06:40:50.158Z,79.40
2023-06-19T06:43:16.895Z,79.60
2023-06-19T06:45:43.896Z,79.20
2023-06-19T06:48:10.959Z,80.10
2023-06-19T06:50:37.823Z,78.80
2023-06-19T06:53:04.501Z,79.70
2023-06-19T06:55:31.194Z,80.70
2023-06-19T06:57:57.888Z,80.30
2023-06-19T07:00:24.857Z,81.20
2023-06-19T07:02:52.260Z,81.40
2023-06-19T07:05:19.138Z,82.00
2023-06-19T07:07:45.929Z,82.10
2023-06-19T07:10:12.681Z,81.90
2023-06-19T07:12:49.318Z,81.50
2023-06-19T07:15:16.177Z,81.50
2023-06-19T07:17:42.993Z,81.80
2023-06-19T07:20:10.066Z,82.20
2023-06-19T07:22:36.979Z,82.30
2023-06-19T07:25:04.922Z,82.80
2023-06-19T07:27:31.715Z,83.00
2023-06-19T07:29:58.481Z,83.40
2023-06-19T07:32:25.234Z,83.60
2023-06-19T07:34:52.032Z,83.20
2023-06-19T07:37:19.083Z,83.00
2023-06-19T07:39:46.351Z,81.50
2023-06-19T07:42:14.340Z,82.50
2023-06-19T07:44:41.248Z,82.20
2023-06-19T07:47:08.544Z,82.50
2023-06-19T07:49:35.834Z,82.60
2023-06-19T07:52:02.901Z,82.60
2023-06-19T07:54:29.597Z,82.30
2023-06-19T07:56:57.041Z,82.60
2023-06-19T07:59:23.846Z,81.90
2023-06-19T08:01:50.584Z,81.70
2023-06-19T08:04:17.265Z,81.00
2023-06-19T08:06:43.987Z,80.40
2023-06-19T08:09:10.720Z,81.80
2023-06-19T08:11:38.378Z,81.00
2023-06-19T08:14:05.159Z,81.80
2023-06-19T08:16:31.905Z,80.70
2023-06-19T08:18:58.688Z,80.30
2023-06-19T08:21:25.490Z,80.00
2023-06-19T08:23:52.288Z,79.90
2023-06-19T08:26:19.294Z,79.70
2023-06-19T08:28:46.018Z,79.30
2023-06-19T08:31:12.738Z,79.00
2023-06-19T08:33:39.489Z,78.40
2023-06-19T08:36:06.186Z,77.80
2023-06-19T08:38:32.877Z,76.60
2023-06-19T08:41:00.319Z,77.90
2023-06-19T08:43:27.063Z,77.20
2023-06-19T08:46:13.255Z,75.90
2023-06-19T08:48:40.148Z,75.90
2023-06-19T08:51:06.980Z,74.80
2023-06-19T08:53:38.833Z,76.70
2023-06-19T08:56:05.592Z,75.50
2023-06-19T08:58:32.310Z,74.70
2023-06-19T09:01:00.232Z,73.70
2023-06-19T09:03:27.167Z,73.20
2023-06-19T09:05:54.196Z,72.10
2023-06-19T09:08:21.515Z,72.50
2023-06-19T09:10:57.971Z,71.20
2023-06-19T09:13:24.716Z,69.80
2023-06-19T09:15:58.813Z,71.50
2023-06-19T09:18:25.514Z,71.00
2023-06-19T09:20:53.856Z,72.40
2023-06-19T09:23:20.956Z,72.30
2023-06-19T09:25:48.159Z,72.00
2023-06-19T09:28:21.594Z,71.90
2023-06-19T09:30:54.232Z,73.70
2023-06-19T09:33:21.117Z,71.70
2023-06-19T09:35:48.862Z,72.60
2023-06-19T09:38:18.099Z,72.70
2023-06-19T09:40:46.886Z,72.50
2023-06-19T09:43:15.124Z,72.30
2023-06-19T09:45:41.968Z,74.20
2023-06-19T09:48:14.181Z,75.50
2023-06-19T09:50:41.577Z,76.10
2023-06-19T09:53:08.293Z,78.20
2023-06-19T09:55:35.445Z,78.60
2023-06-19T09:58:04.087Z,79.80
2023-06-19T10:00:33.305Z,77.40
2023-06-19T10:03:01.461Z,77.00
2023-06-19T10:05:32.139Z,77.90
2023-06-19T10:08:02.583Z,75.30
2023-06-19T10:10:32.132Z,75.30
2023-06-19T10:13:00.604Z,76.60
2023-06-19T10:15:28.308Z,73.70
2023-06-19T10:18:00.414Z,74.20
2023-06-19T10:20:34.303Z,74.70
2023-06-19T10:23:05.299Z,74.50
2023-06-19T10:25:36.730Z,74.90
2023-06-19T10:28:06.985Z,74.80
2023-06-19T10:30:35.408Z,76.40
2023-06-19T10:33:05.293Z,75.30
2023-06-19T10:35:39.783Z,76.10
2023-06-19T10:38:06.707Z,78.30
2023-06-19T10:40:33.404Z,75.40
2023-06-19T10:43:00.240Z,76.80
2023-06-19T10:45:29.515Z,78.60
2023-06-19T10:47:56.696Z,78.00
2023-06-19T10:50:24.217Z,78.90
2023-06-19T10:52:55.240Z,76.40
2023-06-19T10:55:22.386Z,76.20
2023-06-19T10:57:49.962Z,74.80
2023-06-19T11:00:30.399Z,73.20
2023-06-19T11:02:57.803Z,74.80
2023-06-19T11:05:25.364Z,74.80
2023-06-19T11:07:59.492Z,72.20
2023-06-19T11:10:27.183Z,74.30
2023-06-19T11:12:58.266Z,73.30
2023-06-19T11:15:34.942Z,72.60
2023-06-19T11:18:03.065Z,68.10
2023-06-19T11:20:30.188Z,64.60
2023-06-19T11:22:58.289Z,63.50
2023-06-19T11:25:25.171Z,64.10
2023-06-19T11:27:53.057Z,63.90
2023-06-19T11:30:22.340Z,64.20
2023-06-19T11:32:52.188Z,61.30
2023-06-19T11:35:18.980Z,61.60
2023-06-19T11:37:45.686Z,62.10
2023-06-19T11:40:20.377Z,62.80
2023-06-19T11:42:47.945Z,62.30
2023-06-19T11:45:15.062Z,61.80
2023-06-19T11:47:41.830Z,62.30
2023-06-19T11:50:08.866Z,60.80
2023-06-19T11:52:35.633Z,58.80
2023-06-19T11:55:02.406Z,58.00
2023-06-19T11:57:29.107Z,59.80
2023-06-19T11:59:56.573Z,59.60
2023-06-19T12:02:23.480Z,58.90
2023-06-19T12:04:50.576Z,58.00
2023-06-19T12:07:17.510Z,59.60
2023-06-19T12:09:44.312Z,58.90
2023-06-19T12:12:11.392Z,59.40
2023-06-19T12:14:38.289Z,60.50
2023-06-19T12:17:05.153Z,59.90
2023-06-19T12:19:31.910Z,61.10
2023-06-19T12:22:00.176Z,61.30
2023-06-19T12:24:26.987Z,60.30
2023-06-19T12:26:53.869Z,61.30
2023-06-19T12:29:21.995Z,58.70
2023-06-19T12:31:48.773Z,55.90
2023-06-19T12:34:29.549Z,58.20
2023-06-19T12:36:58.491Z,58.20
2023-06-19T12:39:26.114Z,57.40
2023-06-19T12:41:53.154Z,55.10
2023-06-19T12:44:19.887Z,53.80
2023-06-19T12:46:46.610Z,52.00
2023-06-19T12:49:13.409Z,53.90
2023-06-19T12:51:40.159Z,54.10
2023-06-19T12:54:06.824Z,52.40
2023-06-19T12:56:33.583Z,52.00
2023-06-19T12:59:00.253Z,51.00
2023-06-19T13:01:26.992Z,51.10
2023-06-19T13:03:53.847Z,50.70
2023-06-19T13:06:20.651Z,49.10
2023-06-19T13:08:47.588Z,49.00
2023-06-19T13:11:14.503Z,48.90
2023-06-19T13:13:41.196Z,47.20
2023-06-19T13:16:07.971Z,45.70
2023-06-19T13:18:34.706Z,46.40
2023-06-19T13:21:01.373Z,47.40
2023-06-19T13:23:28.052Z,46.50
2023-06-19T13:25:54.727Z,46.40
2023-06-19T13:28:21.509Z,46.40
2023-06-19T13:30:48.298Z,45.00
2023-06-19T13:33:15.085Z,43.50
2023-06-19T13:35:41.879Z,44.70
2023-06-19T13:38:08.751Z,44.50
2023-06-19T13:40:35.728Z,45.00
2023-06-19T13:43:03.732Z,44.70
2023-06-19T13:45:31.712Z,45.30
2023-06-19T13:47:59.154Z,45.20
2023-06-19T13:50:26.222Z,44.70
2023-06-19T13:52:53.082Z,45.00
2023-06-19T13:55:20.139Z,45.50
2023-06-19T13:57:47.192Z,45.20
2023-06-19T14:00:14.132Z,44.30
2023-06-19T14:02:41.941Z,43.40
2023-06-19T14:05:09.624Z,43.50
2023-06-19T14:07:36.771Z,44.20
2023-06-19T14:10:05.077Z,42.50
2023-06-19T14:12:31.960Z,44.00
2023-06-19T14:14:58.780Z,45.00
2023-06-19T14:17:25.610Z,43.60
2023-06-19T14:19:52.426Z,44.40
2023-06-19T14:22:19.282Z,45.30
2023-06-19T14:24:46.187Z,43.90
2023-06-19T14:27:13.625Z,43.70
2023-06-19T14:29:40.400Z,44.90
2023-06-19T14:32:07.075Z,45.10
2023-06-19T14:34:33.876Z,46.90
2023-06-19T14:37:00.588Z,44.30
2023-06-19T14:39:27.297Z,47.20
2023-06-19T14:41:54.013Z,46.40
2023-06-19T14:44:20.718Z,45.20
2023-06-19T14:46:47.409Z,45.30
2023-06-19T14:49:14.452Z,47.80
2023-06-19T14:51:42.659Z,47.10
2023-06-19T14:54:09.535Z,45.70
2023-06-19T14:56:36.201Z,46.10
2023-06-19T14:59:02.855Z,46.20
2023-06-19T15:01:29.685Z,48.00
2023-06-19T15:03:56.690Z,46.60
2023-06-19T15:06:23.514Z,47.40
2023-06-19T15:08:50.210Z,48.20
2023-06-19T15:11:17.045Z,46.30
2023-06-19T15:13:43.703Z,46.80
2023-06-19T15:16:12.973Z,46.30
2023-06-19T15:18:40.128Z,45.80
2023-06-19T15:21:08.275Z,46.20
2023-06-19T15:23:35.224Z,46.10
2023-06-19T15:26:02.178Z,48.50
2023-06-19T15:28:28.893Z,46.10
2023-06-19T15:30:55.593Z,45.60
2023-06-19T15:33:24.859Z,46.60
2023-06-19T15:35:51.811Z,46.40
2023-06-19T15:38:18.562Z,44.90
2023-06-19T15:40:45.304Z,45.30
2023-06-19T15:43:11.974Z,45.30
2023-06-19T15:45:38.968Z,47.40
2023-06-19T15:48:06.163Z,45.30
2023-06-19T15:50:34.220Z,45.30
2023-06-19T15:53:01.128Z,45.20
2023-06-19T15:55:28.746Z,45.10
2023-06-19T15:57:55.552Z,46.80
2023-06-19T16:00:23.029Z,45.80
2023-06-19T16:02:50.220Z,46.10
2023-06-19T16:05:18.047Z,44.70
2023-06-19T16:07:45.242Z,45.80
2023-06-19T16:10:12.013Z,46.20
2023-06-19T16:12:38.759Z,44.60
2023-06-19T16:15:05.762Z,45.70
2023-06-19T16:17:32.895Z,45.90
2023-06-19T16:20:02.841Z,45.70
2023-06-19T16:22:29.714Z,45.40
2023-06-19T16:24:56.511Z,46.10
2023-06-19T16:27:23.205Z,45.80
2023-06-19T16:29:49.942Z,46.90
2023-06-19T16:32:16.673Z,47.50
2023-06-19T16:34:43.467Z,48.30
2023-06-19T16:37:10.224Z,47.50
2023-06-19T16:39:36.931Z,47.80
2023-06-19T16:42:04.069Z,48.70
2023-06-19T16:44:30.851Z,49.10
2023-06-19T16:46:57.773Z,49.60
2023-06-19T16:49:24.705Z,50.30
2023-06-19T16:51:51.435Z,51.30
2023-06-19T16:54:18.219Z,51.80
2023-06-19T16:56:45.000Z,53.70
2023-06-19T16:59:11.755Z,52.90
2023-06-19T17:01:38.700Z,52.60
2023-06-19T17:04:05.544Z,53.70
2023-06-19T17:06:32.201Z,53.20
2023-06-19T17:08:58.878Z,53.60
2023-06-19T17:11:27.977Z,54.10
2023-06-19T17:13:54.912Z,55.10
2023-06-19T17:16:21.704Z,54.80
2023-06-19T17:18:48.996Z,55.90
2023-06-19T17:21:15.978Z,56.50
2023-06-19T17:23:42.849Z,56.00
2023-06-19T17:26:09.569Z,56.80
2023-06-19T17:28:36.290Z,56.80
2023-06-19T17:31:03.446Z,57.20
2023-06-19T17:33:30.213Z,56.90
2023-06-19T17:35:57.002Z,57.30
2023-06-19T17:38:23.750Z,57.90
2023-06-19T17:40:50.427Z,57.40
2023-06-19T17:43:17.135Z,58.10
2023-06-19T17:45:44.012Z,57.60
2023-06-19T17:48:10.787Z,58.60
2023-06-19T17:50:37.636Z,58.70
2023-06-19T17:53:05.712Z,58.80
2023-06-19T17:55:32.371Z,58.60
2023-06-19T17:58:17.780Z,59.10
2023-06-19T18:00:44.471Z,62.30
2023-06-19T18:03:11.310Z,65.60
2023-06-19T18:05:38.187Z,69.20
2023-06-19T18:08:05.017Z,72.80
2023-06-19T18:10:32.681Z,71.70
2023-06-19T18:13:00.041Z,76.10
2023-06-19T18:15:26.775Z,77.90
2023-06-19T18:17:53.473Z,78.30
2023-06-19T18:20:20.468Z,80.90
2023-06-19T18:22:47.232Z,83.80
2023-06-19T18:25:13.985Z,84.80
2023-06-19T18:27:40.803Z,86.50
2023-06-19T18:30:08.398Z,87.00
2023-06-19T18:32:35.177Z,88.30
2023-06-19T18:35:02.010Z,89.20
2023-06-19T18:37:31.585Z,89.80
2023-06-19T18:39:58.261Z,89.00
2023-06-19T18:42:25.061Z,88.80
2023-06-19T18:44:51.875Z,89.50
2023-06-19T18:47:18.562Z,90.70
2023-06-19T18:49:45.324Z,90.40
2023-06-19T18:52:12.133Z,91.30
2023-06-19T18:54:38.812Z,91.80
2023-06-19T18:57:07.636Z,89.80
2023-06-19T18:59:34.811Z,90.30
2023-06-19T19:02:01.844Z,91.10
2023-06-19T19:04:28.787Z,91.20
2023-06-19T19:06:55.501Z,90.20
2023-06-19T19:09:22.164Z,90.70
2023-06-19T19:11:50.336Z,91.40
2023-06-19T19:14:17.076Z,92.30
2023-06-19T19:16:43.882Z,92.30
2023-06-19T19:19:10.624Z,92.20
2023-06-19T19:21:37.346Z,91.90
2023-06-19T19:24:04.199Z,91.60
2023-06-19T19:26:31.012Z,91.50
2023-06-19T19:28:57.785Z,91.50
2023-06-19T19:31:24.436Z,91.70
2023-06-19T19:33:51.157Z,92.10
2023-06-19T19:36:18.126Z,91.30
2023-06-19T19:38:44.794Z,92.00
2023-06-19T19:41:11.503Z,91.30
2023-06-19T19:43:38.605Z,91.50
2023-06-19T19:46:05.364Z,91.20
2023-06-19T19:48:32.049Z,91.30
2023-06-19T19:50:58.759Z,91.00
2023-06-19T19:53:25.444Z,90.40
2023-06-19T19:55:52.192Z,90.60
2023-06-19T19:58:19.160Z,91.40
2023-06-19T20:00:50.446Z,91.60
2023-06-19T20:03:17.491Z,91.30
2023-06-19T20:05:44.381Z,91.50
2023-06-19T20:08:11.093Z,91.50
2023-06-19T20:10:37.794Z,92.00
2023-06-19T20:13:04.486Z,91.10
2023-06-19T20:15:31.213Z,91.50
2023-06-19T20:17:57.924Z,91.60
2023-06-19T20:20:25.130Z,91.20
2023-06-19T20:22:52.054Z,91.20
2023-06-19T20:25:18.719Z,91.30
2023-06-19T20:27:55.349Z,91.50
2023-06-19T20:30:32.679Z,90.90
2023-06-19T20:32:59.362Z,91.40
2023-06-19T20:35:26.064Z,91.10
2023-06-19T20:37:52.727Z,90.40
2023-06-19T20:40:19.464Z,90.50
2023-06-19T20:42:46.219Z,91.10
2023-06-19T20:45:15.154Z,91.10
2023-06-19T20:47:41.864Z,91.10
2023-06-19T20:50:09.565Z,91.20
2023-06-19T20:52:36.237Z,90.80
2023-06-19T20:55:04.277Z,91.00
2023-06-19T20:57:32.127Z,91.40
2023-06-19T20:59:58.799Z,91.30
2023-06-19T21:02:25.770Z,91.50
2023-06-19T21:04:52.557Z,90.50
2023-06-19T21:07:19.215Z,90.80
2023-06-19T21:09:45.861Z,90.00
2023-06-19T21:12:12.586Z,90.10
2023-06-19T21:14:39.513Z,89.80
2023-06-19T21:17:06.332Z,89.00
2023-06-19T21:19:33.080Z,89.40
2023-06-19T21:21:59.730Z,89.10
2023-06-19T21:24:26.492Z,89.90
2023-06-19T21:26:53.173Z,90.20
2023-06-19T21:29:19.924Z,90.40
2023-06-19T21:31:46.632Z,90.50
2023-06-19T21:34:13.355Z,90.30
2023-06-19T21:36:40.124Z,90.60
2023-06-19T21:39:06.805Z,90.40
2023-06-19T21:41:33.526Z,90.80
2023-06-19T21:44:00.173Z,91.00
2023-06-19T21:46:26.927Z,91.10
2023-06-19T21:48:53.555Z,91.20
2023-06-19T21:51:20.335Z,91.40
2023-06-19T21:53:47.027Z,91.70
2023-06-19T21:56:13.665Z,91.80
2023-06-19T21:58:40.382Z,92.00
2023-06-19T22:01:07.272Z,92.30
2023-06-19T22:03:36.130Z,92.50
2023-06-19T22:09:30.409Z,92.80
2023-06-19T22:11:57.656Z,93.20
2023-06-19T22:14:24.338Z,92.30
2023-06-19T22:16:51.031Z,92.50
2023-06-19T22:19:17.731Z,92.60
2023-06-19T22:21:44.420Z,92.40
2023-06-19T22:24:11.326Z,92.30
2023-06-19T22:26:39.379Z,92.40
2023-06-19T22:29:06.630Z,92.80
2023-06-19T22:31:33.590Z,92.60
2023-06-19T22:34:00.389Z,92.40
2023-06-19T22:36:27.093Z,92.40
2023-06-19T22:38:53.870Z,93.00
2023-06-19T22:41:20.594Z,93.00
2023-06-19T22:43:47.317Z,93.00
2023-06-19T22:46:14.092Z,93.10
2023-06-19T22:48:43.100Z,93.10
2023-06-19T22:51:10.191Z,93.00
2023-06-19T22:53:36.933Z,93.60
2023-06-19T22:56:04.645Z,93.50
2023-06-19T22:58:31.367Z,93.60
2023-06-19T23:00:58.330Z,93.40
2023-06-19T23:03:25.210Z,93.70
2023-06-19T23:05:54.518Z,93.80
2023-06-19T23:08:21.198Z,93.80
2023-06-19T23:10:47.876Z,93.90
2023-06-19T23:13:14.618Z,93.90
2023-06-19T23:15:41.291Z,93.90
2023-06-19T23:18:08.090Z,93.90
2023-06-19T23:20:34.881Z,94.20
2023-06-19T23:23:06.492Z,94.30
2023-06-19T23:25:34.585Z,94.30
2023-06-19T23:28:01.440Z,94.30
2023-06-19T23:30:28.122Z,94.90
2023-06-19T23:32:54.963Z,95.00
2023-06-19T23:35:24.097Z,95.10
2023-06-19T23:37:51.178Z,95.10
2023-06-19T23:40:19.139Z,95.00
2023-06-19T23:42:46.099Z,95.30
2023-06-19T23:45:12.819Z,95.40
2023-06-19T23:47:39.839Z,95.40
2023-06-19T23:50:09.153Z,95.00
2023-06-19T23:52:43.562Z,94.80
2023-06-19T23:55:11.539Z,95.00
2023-06-19T23:57:38.266Z,95.20
